BIENTÔT MET'MAP
version 2.0 !

Prévue avant fin octobre,
la nouvelle version sera
plus belle, plus complète
et hébergée sur un serveur
3 fois plus puissant...
et toujours gratuite !


Pas compatible ?
Essayez la version Mobile !

SE CONNECTER : | S'inscrire | Disclaimer | Découvrir Orbifly |
Code OACI :

TAF - LGPZ Aktion Lefkada Preveza - 27 May 2020 12:04 UTC - Data Source NOAA   


- Altitude de l'aérodrome : 11 ft
- Code IATA : PVK
- Pas de NOTAMs connus.


LGPZ - Aktion Lefkada Preveza

Dernier METAR connu : 2015/08/11 07:50 LGPZ 110750Z 08005KT 9999 FEW020 27/18 Q1012
TAF TAF LGPZ
Valide du 27 à 06h jusqu'au 28 à 06h UTC


270500Z 2706/2806 VRB05KT 9999 FEW025 SCT080
BECMG 2710/2712 33010KT
BECMG 2712/2714 VRB05KT
PROB30
TEMPO 2710/2716 5000 RA FEW018TCU SCT025 BKN070
PROB30
TEMPO 2710/2715 5000 TSRA SCT012 FEW018CB BKN025 BKN080
PROB30 2800/2806 5000 BR SCT006

Source NOAA


MET'MAP, la Météo Aéronautique d'un coup d'oeil ! - Copyright ORBIFLY Décembre 2007

Développement & Programmation : Alexandra Zaïnal
Co-Développement : Marc-Olivier Méhu
Soutien technique & logistique : Manuel Goepfert
Conception & Financement : Baudouin d'Aumeries